NWS113 UWOO-UWWW
Flight info
| Callsign | NWS113 |
|---|---|
| Flight time | 0h 45m |
| Altitude | 30000 |
| Route | PIMAM M162 PODUT T750 UDATA |
| Aircraft | B738/M-SDE2E3FGHIRWXY/LB1 |
Departure
| Time | 2026-05-04 14:59 |
|---|---|
| Airport | Orenburg Central Airport (UWOO) |
Arrival
| Time | 2026-05-04 15:44 |
|---|---|
| Airport | Kurumoch International Airport (UWWW) |
| Time | Latitude | Longitude | Altitude | Speed | Heading |
|---|---|---|---|---|---|
| 2026-05-04 14:44 | 51.79225 | 55.45830 | 373 ft | 0 kts | 180° |
| 2026-05-04 14:52 | 51.79233 | 55.45830 | 373 ft | 2 kts | 180° |
| 2026-05-04 14:52 | 51.79248 | 55.45830 | 373 ft | 2 kts | 179° |
| 2026-05-04 14:52 | 51.79262 | 55.45834 | 373 ft | 2 kts | 217° |
| 2026-05-04 14:52 | 51.79271 | 55.45854 | 373 ft | 2 kts | 259° |
| 2026-05-04 14:53 | 51.79270 | 55.45878 | 373 ft | 2 kts | 275° |
| 2026-05-04 14:53 | 51.79270 | 55.45898 | 373 ft | 0 kts | 268° |
| 2026-05-04 14:53 | 51.79270 | 55.45901 | 373 ft | 0 kts | 269° |
| 2026-05-04 14:53 | 51.79270 | 55.45900 | 373 ft | 0 kts | 269° |
| 2026-05-04 14:55 | 51.79270 | 55.45895 | 373 ft | 3 kts | 269° |
| 2026-05-04 14:55 | 51.79272 | 55.45824 | 372 ft | 8 kts | 282° |
| 2026-05-04 14:55 | 51.79308 | 55.45720 | 373 ft | 12 kts | 337° |
| 2026-05-04 14:56 | 51.79406 | 55.45718 | 374 ft | 14 kts | 359° |
| 2026-05-04 14:56 | 51.79496 | 55.45717 | 376 ft | 11 kts | 359° |
| 2026-05-04 14:56 | 51.79571 | 55.45733 | 376 ft | 10 kts | 42° |
| 2026-05-04 14:56 | 51.79581 | 55.45845 | 376 ft | 10 kts | 92° |
| 2026-05-04 14:57 | 51.79580 | 55.46011 | 376 ft | 19 kts | 89° |
| 2026-05-04 14:57 | 51.79582 | 55.46285 | 376 ft | 29 kts | 89° |
| 2026-05-04 14:57 | 51.79583 | 55.46672 | 374 ft | 39 kts | 89° |
| 2026-05-04 14:57 | 51.79583 | 55.47105 | 376 ft | 29 kts | 89° |
| 2026-05-04 14:58 | 51.79571 | 55.47330 | 377 ft | 15 kts | 118° |
| 2026-05-04 14:58 | 51.79567 | 55.47429 | 377 ft | 4 kts | 18° |
| 2026-05-04 14:58 | 51.79582 | 55.47407 | 377 ft | 2 kts | 268° |
| 2026-05-04 14:58 | 51.79581 | 55.47387 | 377 ft | 2 kts | 268° |
| 2026-05-04 14:59 | 51.79582 | 55.46982 | 376 ft | 72 kts | 270° |
| 2026-05-04 14:59 | 51.79582 | 55.45786 | 376 ft | 138 kts | 270° |
| 2026-05-04 14:59 | 51.79561 | 55.42044 | 1392 ft | 168 kts | 274° |
| 2026-05-04 15:00 | 51.79611 | 55.40188 | 1990 ft | 169 kts | 274° |
| 2026-05-04 15:00 | 51.79625 | 55.38260 | 2485 ft | 178 kts | 271° |
| 2026-05-04 15:00 | 51.79592 | 55.36235 | 3011 ft | 184 kts | 270° |
| 2026-05-04 15:01 | 51.79643 | 55.31880 | 3752 ft | 214 kts | 289° |
| 2026-05-04 15:01 | 51.80499 | 55.29837 | 4131 ft | 232 kts | 321° |
| 2026-05-04 15:01 | 51.81840 | 55.28352 | 4701 ft | 242 kts | 326° |
| 2026-05-04 15:01 | 51.83297 | 55.26842 | 5211 ft | 256 kts | 325° |
| 2026-05-04 15:02 | 51.84783 | 55.25191 | 5775 ft | 266 kts | 323° |
| 2026-05-04 15:02 | 51.86242 | 55.23465 | 6837 ft | 256 kts | 321° |
| 2026-05-04 15:02 | 51.87611 | 55.21768 | 7684 ft | 253 kts | 319° |
| 2026-05-04 15:02 | 51.89032 | 55.19924 | 8086 ft | 269 kts | 318° |
| 2026-05-04 15:03 | 51.90470 | 55.17956 | 8682 ft | 276 kts | 316° |
| 2026-05-04 15:03 | 51.91884 | 55.15943 | 9675 ft | 267 kts | 315° |
| 2026-05-04 15:03 | 51.93256 | 55.13924 | 10388 ft | 270 kts | 313° |
| 2026-05-04 15:03 | 51.94634 | 55.11813 | 10825 ft | 282 kts | 311° |
| 2026-05-04 15:04 | 51.96043 | 55.09566 | 11520 ft | 284 kts | 310° |
| 2026-05-04 15:04 | 51.97391 | 55.07361 | 12445 ft | 277 kts | 308° |
| 2026-05-04 15:04 | 51.98642 | 55.04883 | 12726 ft | 290 kts | 297° |
| 2026-05-04 15:04 | 51.99708 | 55.02083 | 13178 ft | 302 kts | 296° |
| 2026-05-04 15:05 | 52.00915 | 54.99149 | 13542 ft | 319 kts | 300° |
| 2026-05-04 15:05 | 52.02283 | 54.96241 | 13948 ft | 334 kts | 303° |
| 2026-05-04 15:05 | 52.03778 | 54.93302 | 14437 ft | 346 kts | 304° |
| 2026-05-04 15:05 | 52.05358 | 54.90290 | 15081 ft | 352 kts | 304° |
| 2026-05-04 15:06 | 52.06924 | 54.87324 | 15927 ft | 350 kts | 303° |
| 2026-05-04 15:06 | 52.08473 | 54.84240 | 16525 ft | 355 kts | 301° |
| 2026-05-04 15:06 | 52.09962 | 54.81065 | 17145 ft | 359 kts | 300° |
| 2026-05-04 15:07 | 52.12913 | 54.74573 | 18613 ft | 359 kts | 299° |
| 2026-05-04 15:07 | 52.14410 | 54.71279 | 19178 ft | 364 kts | 299° |
| 2026-05-04 15:07 | 52.15902 | 54.68009 | 19872 ft | 365 kts | 300° |
| 2026-05-04 15:07 | 52.17432 | 54.64667 | 20444 ft | 369 kts | 300° |
| 2026-05-04 15:08 | 52.18949 | 54.61364 | 21087 ft | 369 kts | 300° |
| 2026-05-04 15:08 | 52.20498 | 54.57992 | 21629 ft | 373 kts | 300° |
| 2026-05-04 15:08 | 52.22041 | 54.54629 | 22124 ft | 377 kts | 300° |
| 2026-05-04 15:08 | 52.23620 | 54.51183 | 22616 ft | 380 kts | 299° |
| 2026-05-04 15:09 | 52.25192 | 54.47745 | 23078 ft | 384 kts | 299° |
| 2026-05-04 15:09 | 52.26795 | 54.44227 | 23629 ft | 386 kts | 300° |
| 2026-05-04 15:09 | 52.28381 | 54.40745 | 24136 ft | 388 kts | 300° |
| 2026-05-04 15:10 | 52.31527 | 54.33605 | 25145 ft | 389 kts | 297° |
| 2026-05-04 15:10 | 52.32922 | 54.29800 | 25579 ft | 390 kts | 293° |
| 2026-05-04 15:10 | 52.35433 | 54.21931 | 26449 ft | 394 kts | 292° |
| 2026-05-04 15:11 | 52.36645 | 54.17956 | 26903 ft | 396 kts | 292° |
| 2026-05-04 15:11 | 52.37873 | 54.13924 | 27525 ft | 393 kts | 292° |
| 2026-05-04 15:11 | 52.39079 | 54.09972 | 27974 ft | 394 kts | 293° |
| 2026-05-04 15:11 | 52.40312 | 54.05948 | 28429 ft | 394 kts | 293° |
| 2026-05-04 15:12 | 52.41537 | 54.01962 | 28891 ft | 394 kts | 293° |
| 2026-05-04 15:12 | 52.42770 | 53.97950 | 29332 ft | 394 kts | 293° |
| 2026-05-04 15:12 | 52.43992 | 53.93976 | 29740 ft | 394 kts | 293° |
| 2026-05-04 15:12 | 52.45231 | 53.89946 | 29940 ft | 397 kts | 293° |
| 2026-05-04 15:13 | 52.46456 | 53.85952 | 29940 ft | 395 kts | 293° |
| 2026-05-04 15:13 | 52.48896 | 53.77989 | 29951 ft | 392 kts | 294° |
| 2026-05-04 15:14 | 52.51326 | 53.70013 | 29948 ft | 392 kts | 294° |
| 2026-05-04 15:14 | 52.53766 | 53.61995 | 29952 ft | 393 kts | 294° |
| 2026-05-04 15:15 | 52.56200 | 53.53966 | 29963 ft | 393 kts | 295° |
| 2026-05-04 15:15 | 52.58625 | 53.45947 | 29954 ft | 392 kts | 296° |
| 2026-05-04 15:16 | 52.62241 | 53.33935 | 29951 ft | 392 kts | 295° |
| 2026-05-04 15:17 | 52.65868 | 53.21831 | 29950 ft | 393 kts | 296° |
| 2026-05-04 15:17 | 52.69458 | 53.09786 | 29948 ft | 389 kts | 296° |
| 2026-05-04 15:18 | 52.70635 | 53.05822 | 29926 ft | 376 kts | 297° |
| 2026-05-04 15:18 | 52.71759 | 53.02027 | 29714 ft | 368 kts | 297° |
| 2026-05-04 15:18 | 52.72879 | 52.98238 | 29342 ft | 366 kts | 297° |
| 2026-05-04 15:19 | 52.75135 | 52.90610 | 28466 ft | 371 kts | 298° |
| 2026-05-04 15:19 | 52.76247 | 52.86839 | 28014 ft | 369 kts | 298° |
| 2026-05-04 15:19 | 52.78462 | 52.79304 | 27112 ft | 364 kts | 299° |
| 2026-05-04 15:20 | 52.79564 | 52.75545 | 26654 ft | 362 kts | 299° |
| 2026-05-04 15:20 | 52.80640 | 52.71865 | 26209 ft | 359 kts | 300° |
| 2026-05-04 15:20 | 52.81723 | 52.68157 | 25760 ft | 356 kts | 300° |
| 2026-05-04 15:20 | 52.82781 | 52.64524 | 25310 ft | 354 kts | 301° |
| 2026-05-04 15:21 | 52.83847 | 52.60861 | 24858 ft | 351 kts | 301° |
| 2026-05-04 15:21 | 52.84888 | 52.57278 | 24414 ft | 349 kts | 301° |
| 2026-05-04 15:21 | 52.86960 | 52.50137 | 23524 ft | 343 kts | 302° |
| 2026-05-04 15:22 | 52.87988 | 52.46587 | 23084 ft | 339 kts | 301° |
| 2026-05-04 15:22 | 52.88990 | 52.43125 | 22663 ft | 336 kts | 302° |
| 2026-05-04 15:22 | 52.90974 | 52.36246 | 21808 ft | 329 kts | 301° |
| 2026-05-04 15:23 | 52.91960 | 52.32826 | 21383 ft | 326 kts | 301° |
| 2026-05-04 15:23 | 52.92921 | 52.29484 | 20980 ft | 324 kts | 301° |
| 2026-05-04 15:23 | 52.93898 | 52.26093 | 20557 ft | 329 kts | 300° |
| 2026-05-04 15:23 | 52.94877 | 52.22695 | 20124 ft | 331 kts | 300° |
| 2026-05-04 15:24 | 52.96821 | 52.15891 | 19271 ft | 325 kts | 300° |
| 2026-05-04 15:24 | 52.98722 | 52.09214 | 18438 ft | 319 kts | 300° |
| 2026-05-04 15:25 | 52.99666 | 52.05896 | 18021 ft | 316 kts | 300° |
| 2026-05-04 15:25 | 53.00603 | 52.02604 | 17600 ft | 314 kts | 300° |
| 2026-05-04 15:25 | 53.01517 | 51.99381 | 17192 ft | 311 kts | 300° |
| 2026-05-04 15:26 | 53.03333 | 51.92961 | 16383 ft | 306 kts | 300° |
| 2026-05-04 15:26 | 53.04236 | 51.89761 | 15972 ft | 304 kts | 300° |
| 2026-05-04 15:26 | 53.06023 | 51.83429 | 15173 ft | 308 kts | 299° |
| 2026-05-04 15:27 | 53.06921 | 51.80242 | 14767 ft | 307 kts | 299° |
| 2026-05-04 15:27 | 53.08702 | 51.73885 | 13956 ft | 302 kts | 299° |
| 2026-05-04 15:28 | 53.10452 | 51.67623 | 13168 ft | 298 kts | 299° |
| 2026-05-04 15:28 | 53.11325 | 51.64498 | 12767 ft | 296 kts | 299° |
| 2026-05-04 15:28 | 53.13039 | 51.58347 | 11989 ft | 292 kts | 299° |
| 2026-05-04 15:29 | 53.13881 | 51.55322 | 11602 ft | 291 kts | 299° |
| 2026-05-04 15:30 | 53.17213 | 51.43302 | 10109 ft | 282 kts | 299° |
| 2026-05-04 15:30 | 53.19449 | 51.34635 | 9967 ft | 270 kts | 294° |
| 2026-05-04 15:31 | 53.20775 | 51.28788 | 9961 ft | 270 kts | 294° |
| 2026-05-04 15:31 | 53.21449 | 51.25847 | 9959 ft | 270 kts | 295° |
| 2026-05-04 15:32 | 53.23470 | 51.17105 | 9957 ft | 271 kts | 295° |
| 2026-05-04 15:32 | 53.24821 | 51.11247 | 9960 ft | 270 kts | 295° |
| 2026-05-04 15:33 | 53.26165 | 51.05404 | 9956 ft | 270 kts | 295° |
| 2026-05-04 15:34 | 53.28150 | 50.96746 | 9305 ft | 268 kts | 295° |
| 2026-05-04 15:34 | 53.28806 | 50.93883 | 8968 ft | 266 kts | 294° |
| 2026-05-04 15:34 | 53.30113 | 50.88149 | 8293 ft | 263 kts | 294° |
| 2026-05-04 15:35 | 53.31403 | 50.82480 | 7621 ft | 260 kts | 294° |
| 2026-05-04 15:35 | 53.32046 | 50.79649 | 7289 ft | 259 kts | 294° |
| 2026-05-04 15:35 | 53.32674 | 50.76881 | 6960 ft | 257 kts | 294° |
| 2026-05-04 15:36 | 53.33927 | 50.71345 | 6311 ft | 254 kts | 293° |
| 2026-05-04 15:36 | 53.34551 | 50.68583 | 5986 ft | 252 kts | 293° |
| 2026-05-04 15:36 | 53.35161 | 50.65876 | 5662 ft | 251 kts | 293° |
| 2026-05-04 15:37 | 53.35776 | 50.63148 | 5343 ft | 249 kts | 293° |
| 2026-05-04 15:37 | 53.36382 | 50.60457 | 5028 ft | 248 kts | 293° |
| 2026-05-04 15:37 | 53.36988 | 50.57758 | 4716 ft | 246 kts | 293° |
| 2026-05-04 15:37 | 53.37582 | 50.55110 | 4406 ft | 245 kts | 293° |
| 2026-05-04 15:38 | 53.38174 | 50.52465 | 4232 ft | 237 kts | 293° |
| 2026-05-04 15:38 | 53.38733 | 50.49965 | 4162 ft | 227 kts | 293° |
| 2026-05-04 15:38 | 53.39285 | 50.47477 | 4105 ft | 227 kts | 291° |
| 2026-05-04 15:38 | 53.39609 | 50.44939 | 4010 ft | 224 kts | 272° |
| 2026-05-04 15:39 | 53.39279 | 50.42410 | 3872 ft | 224 kts | 252° |
| 2026-05-04 15:39 | 53.38677 | 50.40012 | 3613 ft | 226 kts | 250° |
| 2026-05-04 15:39 | 53.37560 | 50.35139 | 3113 ft | 222 kts | 253° |
| 2026-05-04 15:40 | 53.37050 | 50.32717 | 2973 ft | 219 kts | 253° |
| 2026-05-04 15:40 | 53.36568 | 50.30329 | 2776 ft | 213 kts | 257° |
| 2026-05-04 15:40 | 53.36406 | 50.27966 | 2598 ft | 201 kts | 281° |
| 2026-05-04 15:40 | 53.37032 | 50.26031 | 2509 ft | 182 kts | 320° |
| 2026-05-04 15:41 | 53.38067 | 50.25030 | 2521 ft | 170 kts | 338° |
| 2026-05-04 15:41 | 53.39190 | 50.24365 | 2408 ft | 166 kts | 340° |
| 2026-05-04 15:41 | 53.40234 | 50.23758 | 2200 ft | 153 kts | 340° |
| 2026-05-04 15:41 | 53.41231 | 50.23162 | 1994 ft | 151 kts | 340° |
| 2026-05-04 15:42 | 53.42219 | 50.22575 | 1824 ft | 150 kts | 340° |
| 2026-05-04 15:42 | 53.43193 | 50.22000 | 1653 ft | 150 kts | 339° |
| 2026-05-04 15:42 | 53.44175 | 50.21376 | 1428 ft | 152 kts | 337° |
| 2026-05-04 15:42 | 53.45177 | 50.20804 | 1315 ft | 151 kts | 346° |
| 2026-05-04 15:43 | 53.46186 | 50.20321 | 1093 ft | 151 kts | 337° |
| 2026-05-04 15:43 | 53.47153 | 50.19669 | 904 ft | 150 kts | 339° |
| 2026-05-04 15:43 | 53.48138 | 50.19075 | 705 ft | 148 kts | 339° |
| 2026-05-04 15:43 | 53.49100 | 50.18499 | 567 ft | 151 kts | 339° |
| 2026-05-04 15:44 | 53.50084 | 50.17903 | 482 ft | 139 kts | 340° |
| 2026-05-04 15:44 | 53.50783 | 50.17490 | 482 ft | 78 kts | 339° |
| 2026-05-04 15:44 | 53.51182 | 50.17250 | 482 ft | 51 kts | 340° |
| 2026-05-04 15:44 | 53.51395 | 50.17123 | 482 ft | 12 kts | 340° |
| 2026-05-04 15:45 | 53.51429 | 50.17032 | 482 ft | 10 kts | 253° |
| 2026-05-04 15:45 | 53.51397 | 50.16911 | 482 ft | 12 kts | 245° |
| 2026-05-04 15:45 | 53.51356 | 50.16775 | 482 ft | 13 kts | 242° |
| 2026-05-04 15:45 | 53.51311 | 50.16629 | 482 ft | 14 kts | 243° |
| 2026-05-04 15:46 | 53.51262 | 50.16475 | 482 ft | 15 kts | 242° |
| 2026-05-04 15:46 | 53.51207 | 50.16296 | 482 ft | 18 kts | 242° |
| 2026-05-04 15:46 | 53.51170 | 50.16178 | 482 ft | 5 kts | 242° |
| 2026-05-04 15:46 | 53.51153 | 50.16124 | 482 ft | 4 kts | 242° |
| 2026-05-04 15:47 | 53.51144 | 50.16076 | 482 ft | 3 kts | 277° |
| 2026-05-04 15:47 | 53.51159 | 50.16047 | 482 ft | 3 kts | 328° |
| 2026-05-04 15:47 | 53.51175 | 50.16033 | 482 ft | 2 kts | 332° |
| 2026-05-04 15:47 | 53.51190 | 50.16020 | 482 ft | 2 kts | 332° |
| 2026-05-04 15:48 | 53.51196 | 50.16014 | 482 ft | 0 kts | 332° |
| 2026-05-04 15:48 | 53.51197 | 50.16014 | 482 ft | 0 kts | 332° |
| 2026-05-04 15:48 | 53.51198 | 50.16013 | 482 ft | 0 kts | 332° |